sim
Sign-in with your pilot id or email,
or register
Callsign
Passwort

Schedule Details

Flight Number: OEO1997
Departure: Cologne Bonn Airport (EDDK) at 07:15
Arrival: Munich Airport (EDDM) at 08:30

Weather Information
Getting current METAR information for EDDK 191450Z 12006KT 100V160 CAVOK 26/06 Q1016 NOSIG
Getting current METAR information for EDDM 191450Z 05004KT 020V080 CAVOK 22/12 Q1018 NOSIG

Schedule Frequency

Route Map